Time;durP1;ratioP1;P1;durP2;ratioP2;P2;SDS_P1;SDS_P2;PMS_P1;PMS_P2;Temp;Humidity;BMP_temperature;BMP_pressure;BME280_temperature;BME280_humidity;BME280_pressure;Samples;Min_cycle;Max_cycle;Signal;HPM_P1;HPM_P2
2021/07/13 00:00:21;;;;;;;14.15;10.35;;;;;;;;;;5072161;28;20024;-54
2021/07/13 00:02:47;;;;;;;13.13;10.60;;;;;;;;;;5065341;28;20032;-55
2021/07/13 00:05:15;;;;;;;13.50;10.00;;;;;;;;;;5077244;28;20471;-55
2021/07/13 00:07:42;;;;;;;15.88;11.20;;;;;;;;;;5064720;28;20076;-55
2021/07/13 00:10:09;;;;;;;14.75;10.65;;;;;;;;;;5074203;28;20358;-51
2021/07/13 00:12:36;;;;;;;13.40;10.30;;;;;;;;;;5077895;28;20103;-52
2021/07/13 00:15:03;;;;;;;11.88;9.65;;;;;;;;;;5074149;28;20152;-50
2021/07/13 00:17:29;;;;;;;11.25;9.75;;;;;;;;;;5073984;28;20488;-52
2021/07/13 00:19:55;;;;;;;10.88;9.75;;;;;;;;;;5070550;28;20111;-50
2021/07/13 00:22:21;;;;;;;12.35;10.43;;;;;;;;;;5072564;28;20785;-51
2021/07/13 00:24:46;;;;;;;12.20;10.52;;;;;;;;;;5073949;28;20028;-56
2021/07/13 00:27:12;;;;;;;12.73;10.80;;;;;;;;;;5073983;28;20039;-50
2021/07/13 00:29:38;;;;;;;12.70;10.50;;;;;;;;;;5073436;28;20078;-53
2021/07/13 00:32:04;;;;;;;12.80;9.68;;;;;;;;;;5073701;28;20107;-53
2021/07/13 00:34:30;;;;;;;13.57;9.77;;;;;;;;;;5073644;28;20024;-54
2021/07/13 00:36:56;;;;;;;14.00;10.10;;;;;;;;;;5069733;28;20035;-56
2021/07/13 00:39:22;;;;;;;13.23;9.57;;;;;;;;;;5072368;28;20055;-55
2021/07/13 00:41:48;;;;;;;14.50;10.18;;;;;;;;;;5073629;28;20061;-52
2021/07/13 00:44:14;;;;;;;15.77;10.68;;;;;;;;;;5064598;28;20047;-51
2021/07/13 00:46:46;;;;;;;17.40;11.23;;;;;;;;;;5063955;28;20029;-52
2021/07/13 00:49:12;;;;;;;12.57;10.45;;;;;;;;;;5072818;28;20480;-50
2021/07/13 00:51:39;;;;;;;12.63;10.52;;;;;;;;;;5073460;28;20364;-50
2021/07/13 00:54:05;;;;;;;11.23;9.73;;;;;;;;;;5073418;28;20091;-53
2021/07/13 00:56:31;;;;;;;12.65;10.27;;;;;;;;;;5079158;28;20100;-53
2021/07/13 00:58:57;;;;;;;15.10;11.50;;;;;;;;;;5073004;28;20099;-54
2021/07/13 01:01:23;;;;;;;14.10;12.07;;;;;;;;;;5072735;28;20468;-50
2021/07/13 01:03:49;;;;;;;14.63;11.50;;;;;;;;;;5072754;28;20033;-51
2021/07/13 01:06:19;;;;;;;15.20;11.43;;;;;;;;;;5062183;28;20112;-54
2021/07/13 01:08:51;;;;;;;14.77;11.73;;;;;;;;;;5070661;28;20045;-51
2021/07/13 01:11:32;;;;;;;13.57;11.10;;;;;;;;;;5068677;28;20032;-54
2021/07/13 01:14:03;;;;;;;14.77;12.25;;;;;;;;;;5071107;28;20036;-52
2021/07/13 01:16:34;;;;;;;19.23;12.77;;;;;;;;;;5072587;28;20028;-50
2021/07/13 01:19:21;;;;;;;13.13;11.73;;;;;;;;;;5072245;28;20032;-51
2021/07/13 01:21:57;;;;;;;14.52;11.88;;;;;;;;;;5071215;28;20065;-54
2021/07/13 01:24:29;;;;;;;13.63;11.57;;;;;;;;;;5072854;28;20104;-50
2021/07/13 01:26:55;;;;;;;14.93;12.20;;;;;;;;;;5072082;28;20581;-55
2021/07/13 01:29:24;;;;;;;16.27;11.63;;;;;;;;;;5071911;28;20033;-52
2021/07/13 01:31:50;;;;;;;14.30;12.45;;;;;;;;;;5067312;28;20119;-51
2021/07/13 01:34:21;;;;;;;17.00;11.20;;;;;;;;;;5066515;28;20020;-51
2021/07/13 01:36:49;;;;;;;16.67;12.25;;;;;;;;;;5067213;28;20414;-50
2021/07/13 01:39:16;;;;;;;14.02;11.75;;;;;;;;;;5071821;28;20107;-51
2021/07/13 01:41:42;;;;;;;15.02;12.02;;;;;;;;;;5072269;28;20028;-53
2021/07/13 01:44:10;;;;;;;18.38;13.25;;;;;;;;;;5062991;28;20422;-51
2021/07/13 01:46:38;;;;;;;15.95;12.02;;;;;;;;;;5062958;28;20115;-52
2021/07/13 01:49:04;;;;;;;14.25;12.68;;;;;;;;;;5059682;28;20075;-50
2021/07/13 01:51:31;;;;;;;14.43;11.85;;;;;;;;;;5072126;28;20031;-53
2021/07/13 01:54:02;;;;;;;19.88;12.40;;;;;;;;;;5071330;28;20122;-52
2021/07/13 01:56:29;;;;;;;16.73;12.55;;;;;;;;;;5066990;28;20606;-51
2021/07/13 01:58:55;;;;;;;17.77;12.10;;;;;;;;;;5071725;28;20099;-52
2021/07/13 02:01:23;;;;;;;15.07;11.85;;;;;;;;;;5070973;28;20108;-52
2021/07/13 02:03:50;;;;;;;15.57;12.77;;;;;;;;;;5069225;28;20040;-52
2021/07/13 02:06:17;;;;;;;20.08;13.35;;;;;;;;;;5074861;28;20074;-54
2021/07/13 02:08:44;;;;;;;16.42;13.07;;;;;;;;;;5071318;28;20127;-50
2021/07/13 02:11:11;;;;;;;14.10;11.73;;;;;;;;;;5066251;28;20028;-52
2021/07/13 02:13:38;;;;;;;17.40;13.30;;;;;;;;;;5073037;28;20030;-54
2021/07/13 02:16:04;;;;;;;17.52;12.52;;;;;;;;;;5072124;28;20024;-54
2021/07/13 02:18:30;;;;;;;17.25;12.27;;;;;;;;;;5071376;28;20099;-51
2021/07/13 02:20:57;;;;;;;17.27;12.77;;;;;;;;;;5071889;28;20154;-51
2021/07/13 02:23:23;;;;;;;15.68;12.52;;;;;;;;;;5068222;28;20483;-54
2021/07/13 02:25:50;;;;;;;18.77;11.70;;;;;;;;;;5072012;28;20111;-53
2021/07/13 02:28:18;;;;;;;17.10;12.98;;;;;;;;;;5071633;28;20028;-55
2021/07/13 02:30:46;;;;;;;17.17;12.52;;;;;;;;;;5071925;28;20024;-50
2021/07/13 02:33:17;;;;;;;17.95;13.10;;;;;;;;;;5071533;28;20054;-53
2021/07/13 02:35:46;;;;;;;20.80;13.32;;;;;;;;;;5067927;28;20030;-53
2021/07/13 02:38:12;;;;;;;14.30;12.45;;;;;;;;;;5071475;28;20021;-51
2021/07/13 02:40:39;;;;;;;21.90;13.40;;;;;;;;;;5071754;28;20108;-53
2021/07/13 02:43:05;;;;;;;16.63;13.43;;;;;;;;;;5069330;28;20028;-51
2021/07/13 02:45:32;;;;;;;15.07;12.10;;;;;;;;;;5056137;28;20029;-51
2021/07/13 02:47:58;;;;;;;16.85;12.43;;;;;;;;;;5070964;28;20103;-50
2021/07/13 02:50:25;;;;;;;15.40;12.50;;;;;;;;;;5071763;28;20028;-51
2021/07/13 02:52:53;;;;;;;17.23;13.35;;;;;;;;;;5071730;28;20078;-54
2021/07/13 02:55:21;;;;;;;15.25;12.43;;;;;;;;;;5071590;28;20029;-50
2021/07/13 02:57:47;;;;;;;19.10;12.45;;;;;;;;;;5073167;28;20107;-51
2021/07/13 03:00:14;;;;;;;15.93;13.40;;;;;;;;;;5074578;28;20024;-50
2021/07/13 03:02:41;;;;;;;18.25;14.30;;;;;;;;;;5071338;28;20056;-50
2021/07/13 03:05:10;;;;;;;15.55;13.02;;;;;;;;;;5068278;28;20099;-52
2021/07/13 03:07:37;;;;;;;18.17;13.65;;;;;;;;;;5061276;28;20055;-52
2021/07/13 03:10:03;;;;;;;15.30;12.75;;;;;;;;;;5061266;28;20124;-50
2021/07/13 03:12:29;;;;;;;17.95;13.75;;;;;;;;;;5078047;28;20025;-52
2021/07/13 03:14:56;;;;;;;17.50;12.77;;;;;;;;;;5067958;28;20171;-51
2021/07/13 03:17:23;;;;;;;14.77;12.55;;;;;;;;;;5075253;28;20024;-51
2021/07/13 03:19:49;;;;;;;17.67;13.40;;;;;;;;;;5074765;28;20034;-53
2021/07/13 03:22:20;;;;;;;13.88;12.15;;;;;;;;;;5073890;28;20020;-50
2021/07/13 03:24:47;;;;;;;14.75;11.52;;;;;;;;;;5075193;28;20451;-51
2021/07/13 03:27:14;;;;;;;16.98;12.60;;;;;;;;;;5074962;28;20363;-53
2021/07/13 03:29:41;;;;;;;15.60;12.70;;;;;;;;;;5074221;28;20124;-51
2021/07/13 03:32:07;;;;;;;15.82;12.60;;;;;;;;;;5075169;28;20073;-50
2021/07/13 03:34:34;;;;;;;16.58;11.85;;;;;;;;;;5074729;28;20108;-51
2021/07/13 03:37:00;;;;;;;16.30;12.07;;;;;;;;;;5070951;28;20035;-50
2021/07/13 03:39:26;;;;;;;14.88;11.85;;;;;;;;;;5073465;28;20044;-52
2021/07/13 03:41:53;;;;;;;16.00;12.00;;;;;;;;;;5074664;28;20401;-51
2021/07/13 03:44:19;;;;;;;16.20;11.20;;;;;;;;;;5064522;28;20040;-53
2021/07/13 03:46:45;;;;;;;16.60;13.05;;;;;;;;;;5063263;28;20158;-52
2021/07/13 03:49:11;;;;;;;18.02;13.43;;;;;;;;;;5073756;28;20492;-52
2021/07/13 03:51:46;;;;;;;18.45;12.95;;;;;;;;;;5069480;28;21651;-50
2021/07/13 03:54:13;;;;;;;17.45;13.02;;;;;;;;;;5065542;28;20036;-52
2021/07/13 03:56:40;;;;;;;19.33;13.40;;;;;;;;;;5064593;28;20060;-52
2021/07/13 03:59:06;;;;;;;17.13;14.38;;;;;;;;;;5062489;28;20058;-50
2021/07/13 04:01:32;;;;;;;19.35;12.98;;;;;;;;;;5065567;28;20143;-50
2021/07/13 04:03:59;;;;;;;16.02;13.77;;;;;;;;;;5073490;28;20187;-52
2021/07/13 04:06:25;;;;;;;17.08;14.00;;;;;;;;;;5075296;28;20024;-52
2021/07/13 04:08:51;;;;;;;15.85;12.38;;;;;;;;;;5067647;28;20388;-51
2021/07/13 04:11:17;;;;;;;14.52;12.15;;;;;;;;;;5068827;28;20028;-49
2021/07/13 04:13:43;;;;;;;18.88;13.25;;;;;;;;;;5073180;28;20107;-52
2021/07/13 04:16:10;;;;;;;14.20;12.60;;;;;;;;;;5073273;28;20436;-50
2021/07/13 04:18:36;;;;;;;15.90;13.15;;;;;;;;;;5061189;28;20476;-51
2021/07/13 04:21:02;;;;;;;17.70;14.15;;;;;;;;;;5073831;28;20059;-51
2021/07/13 04:23:28;;;;;;;16.70;13.73;;;;;;;;;;5071423;28;20033;-56
2021/07/13 04:25:54;;;;;;;16.35;13.52;;;;;;;;;;5069918;28;20086;-52
2021/07/13 04:28:20;;;;;;;16.73;13.50;;;;;;;;;;5068512;28;20111;-54
2021/07/13 04:30:46;;;;;;;19.67;13.75;;;;;;;;;;5063709;28;20070;-54
2021/07/13 04:33:12;;;;;;;17.48;12.98;;;;;;;;;;5071698;28;20025;-50
2021/07/13 04:35:39;;;;;;;15.00;11.65;;;;;;;;;;5069854;28;20025;-52
2021/07/13 04:38:05;;;;;;;18.08;13.52;;;;;;;;;;5071282;28;20104;-53
2021/07/13 04:40:31;;;;;;;15.13;12.40;;;;;;;;;;5067317;28;20108;-51
2021/07/13 04:42:57;;;;;;;15.75;13.43;;;;;;;;;;5064785;28;20458;-50
2021/07/13 04:45:23;;;;;;;17.02;13.15;;;;;;;;;;5064303;28;20041;-52
2021/07/13 04:47:49;;;;;;;18.30;13.15;;;;;;;;;;5072922;28;20388;-51
2021/07/13 04:50:15;;;;;;;14.93;13.02;;;;;;;;;;5063893;28;20104;-53
2021/07/13 04:52:41;;;;;;;14.63;12.23;;;;;;;;;;5070238;28;20119;-50
2021/07/13 04:55:07;;;;;;;16.98;14.02;;;;;;;;;;5073085;28;20475;-51
2021/07/13 04:57:33;;;;;;;16.05;13.07;;;;;;;;;;5072239;28;20112;-53
2021/07/13 04:59:59;;;;;;;15.15;13.07;;;;;;;;;;5072489;28;20111;-55
2021/07/13 05:02:25;;;;;;;14.43;11.35;;;;;;;;;;5064633;28;20124;-50
2021/07/13 05:04:52;;;;;;;17.25;14.45;;;;;;;;;;5064167;28;20057;-53
2021/07/13 05:07:18;;;;;;;19.27;14.25;;;;;;;;;;5066276;28;20031;-55
2021/07/13 05:09:44;;;;;;;15.55;12.10;;;;;;;;;;5063335;28;20043;-51
2021/07/13 05:12:10;;;;;;;20.70;12.70;;;;;;;;;;5069980;28;20460;-52
2021/07/13 05:14:36;;;;;;;14.95;11.77;;;;;;;;;;5064452;28;20024;-53
2021/07/13 05:17:03;;;;;;;14.18;12.05;;;;;;;;;;5069192;28;20036;-53
2021/07/13 05:19:32;;;;;;;18.15;11.88;;;;;;;;;;5060255;28;20499;-50
2021/07/13 05:22:01;;;;;;;14.40;11.85;;;;;;;;;;5068537;28;20025;-53
2021/07/13 05:24:27;;;;;;;14.15;11.43;;;;;;;;;;5064837;28;20108;-53
2021/07/13 05:26:54;;;;;;;12.57;11.15;;;;;;;;;;5063382;28;20028;-50
2021/07/13 05:29:20;;;;;;;13.88;11.98;;;;;;;;;;5067867;28;20067;-54
2021/07/13 05:31:46;;;;;;;12.27;10.65;;;;;;;;;;5064405;28;20020;-50
2021/07/13 05:34:12;;;;;;;14.05;11.13;;;;;;;;;;5057689;28;20043;-52
2021/07/13 05:36:38;;;;;;;12.77;10.85;;;;;;;;;;5062738;28;20032;-52
2021/07/13 05:39:08;;;;;;;12.23;10.45;;;;;;;;;;5057834;28;20031;-52
2021/07/13 05:41:34;;;;;;;16.00;11.77;;;;;;;;;;5065266;28;20099;-55
2021/07/13 05:44:00;;;;;;;12.70;10.00;;;;;;;;;;5062853;28;20044;-52
2021/07/13 05:46:26;;;;;;;13.30;9.30;;;;;;;;;;5063021;28;20024;-54
2021/07/13 05:48:52;;;;;;;10.07;9.00;;;;;;;;;;5062977;28;20050;-53
2021/07/13 05:51:18;;;;;;;10.88;9.05;;;;;;;;;;5065727;28;20141;-50
2021/07/13 05:53:44;;;;;;;11.70;9.85;;;;;;;;;;5066055;28;20024;-51
2021/07/13 05:56:10;;;;;;;13.98;8.52;;;;;;;;;;5061365;28;20020;-50
2021/07/13 05:58:37;;;;;;;9.88;8.25;;;;;;;;;;5069612;28;20016;-55
2021/07/13 06:01:04;;;;;;;13.55;9.02;;;;;;;;;;5069292;28;20033;-51
2021/07/13 06:03:30;;;;;;;10.98;8.65;;;;;;;;;;5069394;28;20032;-53
2021/07/13 06:05:56;;;;;;;9.45;7.63;;;;;;;;;;5067522;28;20531;-49
2021/07/13 06:08:22;;;;;;;8.98;7.53;;;;;;;;;;5070043;28;20048;-51
2021/07/13 06:10:48;;;;;;;11.95;8.63;;;;;;;;;;5060139;28;20039;-53
2021/07/13 06:13:14;;;;;;;10.25;7.95;;;;;;;;;;5072563;28;20035;-51
2021/07/13 06:15:40;;;;;;;9.27;7.15;;;;;;;;;;5059178;28;20027;-52
2021/07/13 06:18:06;;;;;;;10.52;7.55;;;;;;;;;;5071704;28;20104;-51
2021/07/13 06:20:34;;;;;;;7.45;6.65;;;;;;;;;;5071636;28;20101;-53
2021/07/13 06:23:00;;;;;;;11.20;7.90;;;;;;;;;;5069731;28;20086;-53
2021/07/13 06:25:27;;;;;;;10.20;7.47;;;;;;;;;;5071512;28;20024;-53
2021/07/13 06:27:53;;;;;;;10.40;7.18;;;;;;;;;;5071738;28;20070;-52
2021/07/13 06:30:19;;;;;;;8.02;6.30;;;;;;;;;;5071955;28;20425;-55
2021/07/13 06:32:45;;;;;;;7.63;6.05;;;;;;;;;;5071882;28;20017;-55
2021/07/13 06:35:11;;;;;;;8.18;6.30;;;;;;;;;;5071666;28;20025;-52
2021/07/13 06:37:37;;;;;;;6.93;6.05;;;;;;;;;;5067922;28;20107;-53
2021/07/13 06:40:06;;;;;;;5.75;5.05;;;;;;;;;;5071560;28;20028;-51
2021/07/13 06:42:32;;;;;;;6.22;5.28;;;;;;;;;;5074530;28;20028;-51
2021/07/13 06:44:58;;;;;;;5.82;5.20;;;;;;;;;;5061047;28;20020;-52
2021/07/13 06:47:24;;;;;;;5.88;5.18;;;;;;;;;;5070796;28;20059;-50
2021/07/13 06:49:50;;;;;;;6.90;4.95;;;;;;;;;;5075429;28;20033;-54
2021/07/13 06:52:16;;;;;;;4.68;4.07;;;;;;;;;;5075928;28;20036;-53
2021/07/13 06:54:42;;;;;;;5.85;3.97;;;;;;;;;;5075593;28;20641;-50
2021/07/13 06:57:08;;;;;;;7.25;4.10;;;;;;;;;;5075716;28;20107;-50
2021/07/13 06:59:34;;;;;;;5.40;3.80;;;;;;;;;;5075307;28;20460;-53
2021/07/13 07:02:01;;;;;;;4.10;3.70;;;;;;;;;;5075233;28;20488;-52
2021/07/13 07:04:27;;;;;;;5.72;4.03;;;;;;;;;;5075778;28;20487;-50
2021/07/13 07:06:54;;;;;;;5.00;3.40;;;;;;;;;;5077527;28;20032;-51
2021/07/13 07:09:20;;;;;;;6.35;4.40;;;;;;;;;;5074709;28;20128;-51
2021/07/13 07:11:46;;;;;;;4.03;3.53;;;;;;;;;;5078726;28;20016;-54
2021/07/13 07:14:12;;;;;;;6.97;3.70;;;;;;;;;;5075347;28;20448;-54
2021/07/13 07:16:38;;;;;;;6.65;3.47;;;;;;;;;;5074369;28;20036;-54
2021/07/13 07:19:04;;;;;;;3.92;3.35;;;;;;;;;;5074872;28;20029;-50
2021/07/13 07:21:30;;;;;;;4.13;3.05;;;;;;;;;;5074132;28;20123;-52
2021/07/13 07:23:56;;;;;;;3.45;2.80;;;;;;;;;;5074137;28;20471;-51
2021/07/13 07:26:22;;;;;;;5.43;2.50;;;;;;;;;;5073520;28;20449;-51
2021/07/13 07:28:48;;;;;;;4.30;2.75;;;;;;;;;;5074610;28;20020;-54
2021/07/13 07:31:17;;;;;;;3.88;3.13;;;;;;;;;;5074722;28;20028;-55
2021/07/13 07:33:43;;;;;;;3.67;2.80;;;;;;;;;;5075150;28;20025;-50
2021/07/13 07:36:09;;;;;;;3.22;2.60;;;;;;;;;;5070998;28;20031;-52
2021/07/13 07:38:35;;;;;;;4.00;2.78;;;;;;;;;;5074491;28;20376;-50
2021/07/13 07:41:01;;;;;;;4.63;2.50;;;;;;;;;;5074653;28;20056;-50
2021/07/13 07:43:27;;;;;;;3.92;2.60;;;;;;;;;;5068985;28;20025;-51
2021/07/13 07:45:53;;;;;;;3.83;2.83;;;;;;;;;;5059684;28;20068;-52
2021/07/13 07:48:19;;;;;;;4.90;2.72;;;;;;;;;;5074308;28;20067;-55
2021/07/13 07:50:45;;;;;;;2.30;1.83;;;;;;;;;;5074532;28;20812;-53
2021/07/13 07:53:11;;;;;;;3.60;2.05;;;;;;;;;;5073982;28;20103;-53
2021/07/13 07:55:38;;;;;;;2.90;2.15;;;;;;;;;;5074280;28;20025;-49
2021/07/13 07:58:04;;;;;;;4.78;1.90;;;;;;;;;;5073980;28;20020;-50
2021/07/13 08:00:30;;;;;;;9.65;2.15;;;;;;;;;;5073454;28;20031;-54
2021/07/13 08:02:56;;;;;;;2.33;1.50;;;;;;;;;;5074392;28;20029;-51
2021/07/13 08:05:26;;;;;;;2.78;1.83;;;;;;;;;;5077672;28;20032;-53
2021/07/13 08:07:52;;;;;;;2.50;1.80;;;;;;;;;;5073961;28;20040;-50
2021/07/13 08:10:18;;;;;;;6.43;2.17;;;;;;;;;;5073824;28;20024;-51
2021/07/13 08:12:44;;;;;;;4.07;2.15;;;;;;;;;;5077720;28;20123;-52
2021/07/13 08:15:11;;;;;;;3.33;2.10;;;;;;;;;;5073848;28;20659;-50
2021/07/13 08:17:37;;;;;;;2.50;2.08;;;;;;;;;;5073939;28;20108;-51
2021/07/13 08:20:04;;;;;;;2.72;2.13;;;;;;;;;;5074129;28;20028;-51
2021/07/13 08:22:32;;;;;;;6.50;2.53;;;;;;;;;;5072987;28;20029;-50
2021/07/13 08:24:59;;;;;;;3.67;2.13;;;;;;;;;;5073619;28;20426;-50
2021/07/13 08:27:25;;;;;;;2.85;2.00;;;;;;;;;;5073952;28;20033;-53
2021/07/13 08:29:51;;;;;;;3.28;2.20;;;;;;;;;;5073325;28;20060;-52
2021/07/13 08:32:16;;;;;;;2.65;1.90;;;;;;;;;;5073943;28;20025;-55
2021/07/13 08:34:42;;;;;;;2.72;2.03;;;;;;;;;;5073715;28;20021;-51
2021/07/13 08:37:09;;;;;;;4.90;2.60;;;;;;;;;;5069976;28;20036;-54
2021/07/13 08:39:35;;;;;;;3.83;1.75;;;;;;;;;;5072886;28;20169;-49
2021/07/13 08:42:03;;;;;;;4.13;1.88;;;;;;;;;;5073507;28;20497;-50
2021/07/13 08:44:29;;;;;;;4.07;1.75;;;;;;;;;;5072654;28;20033;-53
2021/07/13 08:46:55;;;;;;;2.20;1.92;;;;;;;;;;5064944;28;20033;-54
2021/07/13 08:49:21;;;;;;;3.10;1.88;;;;;;;;;;5072966;28;20051;-56
2021/07/13 08:51:47;;;;;;;3.67;2.17;;;;;;;;;;5072902;28;20115;-54
2021/07/13 08:54:14;;;;;;;3.50;1.80;;;;;;;;;;5073333;28;20107;-51
2021/07/13 08:56:40;;;;;;;1.98;1.77;;;;;;;;;;5072992;28;20129;-56
2021/07/13 08:59:07;;;;;;;3.30;1.67;;;;;;;;;;5072783;28;20038;-51
2021/07/13 09:01:33;;;;;;;2.42;1.92;;;;;;;;;;5073456;28;20091;-50
2021/07/13 09:04:05;;;;;;;2.63;2.03;;;;;;;;;;5073261;28;20028;-49
2021/07/13 09:06:49;;;;;;;2.70;2.25;;;;;;;;;;5075923;28;20024;-55
2021/07/13 09:09:22;;;;;;;3.00;2.05;;;;;;;;;;5060876;28;20045;-54
2021/07/13 09:11:53;;;;;;;2.85;2.03;;;;;;;;;;5076303;28;20114;-55
2021/07/13 09:14:19;;;;;;;4.22;2.70;;;;;;;;;;5063555;28;20021;-53
2021/07/13 09:16:45;;;;;;;4.90;2.40;;;;;;;;;;5072767;28;20509;-52
2021/07/13 09:19:14;;;;;;;3.78;2.17;;;;;;;;;;5073023;28;20322;-51
2021/07/13 09:21:42;;;;;;;3.88;2.67;;;;;;;;;;5071172;28;20108;-56
2021/07/13 09:24:08;;;;;;;2.78;2.03;;;;;;;;;;5073052;28;20078;-50
2021/07/13 09:26:53;;;;;;;4.32;2.28;;;;;;;;;;5072423;28;20100;-51
2021/07/13 09:29:31;;;;;;;2.90;2.40;;;;;;;;;;5072453;28;20029;-54
2021/07/13 09:32:15;;;;;;;5.63;2.53;;;;;;;;;;5071678;28;20036;-54
2021/07/13 09:34:40;;;;;;;;;;;;;;;;;;5072984;28;20379;-55
2021/07/13 09:37:20;;;;;;;3.50;2.60;;;;;;;;;;5067972;28;20046;-55
2021/07/13 09:39:54;;;;;;;4.50;2.42;;;;;;;;;;5071723;28;20032;-56
2021/07/13 09:42:21;;;;;;;2.83;1.92;;;;;;;;;;5072693;28;20453;-50
2021/07/13 09:44:47;;;;;;;3.08;1.75;;;;;;;;;;5067371;28;20028;-54
2021/07/13 09:47:27;;;;;;;2.10;1.52;;;;;;;;;;5065926;28;20349;-55
2021/07/13 09:49:53;;;;;;;3.10;1.83;;;;;;;;;;5071953;28;20145;-53
2021/07/13 09:52:23;;;;;;;2.88;2.28;;;;;;;;;;5072045;28;20464;-51
2021/07/13 09:54:49;;;;;;;2.92;2.42;;;;;;;;;;5072393;28;20020;-54
2021/07/13 09:57:15;;;;;;;4.68;2.67;;;;;;;;;;5072169;28;20484;-54
2021/07/13 09:59:42;;;;;;;4.82;2.50;;;;;;;;;;5071204;28;20039;-54
2021/07/13 10:02:09;;;;;;;3.13;2.42;;;;;;;;;;5072233;28;20025;-57
2021/07/13 10:04:39;;;;;;;3.38;2.65;;;;;;;;;;5073144;28;20039;-50
2021/07/13 10:07:09;;;;;;;3.22;2.20;;;;;;;;;;5072691;28;20109;-54
2021/07/13 10:09:42;;;;;;;7.03;2.40;;;;;;;;;;5071747;28;20392;-54
2021/07/13 10:12:11;;;;;;;2.60;2.20;;;;;;;;;;5075495;28;20460;-52
2021/07/13 10:14:38;;;;;;;4.82;2.17;;;;;;;;;;5070656;28;20115;-53
2021/07/13 10:17:05;;;;;;;3.13;2.35;;;;;;;;;;5071312;28;20032;-54
2021/07/13 10:19:30;;;;;;;3.30;2.10;;;;;;;;;;5071825;28;20032;-51
2021/07/13 10:21:57;;;;;;;3.08;1.90;;;;;;;;;;5070656;28;20028;-51
2021/07/13 10:24:24;;;;;;;2.60;2.20;;;;;;;;;;5069742;28;20032;-51
2021/07/13 10:26:54;;;;;;;2.85;2.08;;;;;;;;;;5071725;28;20024;-52
2021/07/13 10:29:32;;;;;;;4.97;2.63;;;;;;;;;;5071519;28;20024;-51
2021/07/13 10:31:58;;;;;;;3.78;2.13;;;;;;;;;;5071930;28;20028;-52
2021/07/13 10:34:43;;;;;;;4.57;2.60;;;;;;;;;;5072091;28;20379;-54
2021/07/13 10:37:25;;;;;;;5.13;2.83;;;;;;;;;;5067892;28;20017;-53
2021/07/13 10:39:53;;;;;;;2.70;2.33;;;;;;;;;;5071121;28;20027;-51
2021/07/13 10:42:45;;;;;;;4.85;2.25;;;;;;;;;;5071575;28;20035;-55
2021/07/13 10:45:22;;;;;;;2.47;2.22;;;;;;;;;;5063168;28;20037;-50
2021/07/13 10:48:01;;;;;;;5.95;1.88;;;;;;;;;;5070297;28;20031;-54
2021/07/13 10:50:27;;;;;;;2.22;1.95;;;;;;;;;;5071589;28;20036;-52
2021/07/13 10:52:57;;;;;;;1.92;1.60;;;;;;;;;;5071889;28;20024;-50
2021/07/13 10:55:32;;;;;;;5.18;2.13;;;;;;;;;;5071576;28;20021;-53
2021/07/13 10:58:10;;;;;;;3.67;1.80;;;;;;;;;;5071350;28;20025;-49
2021/07/13 11:00:53;;;;;;;2.47;1.88;;;;;;;;;;5071592;28;20029;-53
2021/07/13 11:03:19;;;;;;;;;;;;;;;;;;5072234;28;20036;-53
2021/07/13 11:05:45;;;;;;;2.63;2.17;;;;;;;;;;5071521;28;20356;-54
2021/07/13 11:08:31;;;;;;;3.63;1.58;;;;;;;;;;5070950;28;20512;-52
2021/07/13 11:10:57;;;;;;;3.25;2.10;;;;;;;;;;5071103;28;20039;-54
2021/07/13 11:13:24;;;;;;;1.98;1.77;;;;;;;;;;5066286;28;20451;-52
2021/07/13 11:15:49;;;;;;;1.98;1.70;;;;;;;;;;5071748;28;20520;-53
2021/07/13 11:18:26;;;;;;;2.63;1.85;;;;;;;;;;5071033;28;20021;-53
2021/07/13 11:20:52;;;;;;;3.30;1.60;;;;;;;;;;5071690;28;20080;-53
2021/07/13 11:23:27;;;;;;;3.38;2.03;;;;;;;;;;5069978;28;20043;-53
2021/07/13 11:26:09;;;;;;;2.40;1.90;;;;;;;;;;5071086;28;20089;-52
2021/07/13 11:28:36;;;;;;;3.92;1.85;;;;;;;;;;5070276;28;20074;-52
2021/07/13 11:31:05;;;;;;;2.10;1.80;;;;;;;;;;5074883;28;20072;-53
2021/07/13 11:33:31;;;;;;;4.13;1.95;;;;;;;;;;5074979;28;20025;-53
2021/07/13 11:35:59;;;;;;;2.63;2.03;;;;;;;;;;5070846;28;20014;-54
2021/07/13 11:38:30;;;;;;;3.90;2.33;;;;;;;;;;5074224;28;20024;-55
2021/07/13 11:41:12;;;;;;;3.25;1.90;;;;;;;;;;5074486;28;20021;-56
2021/07/13 11:43:39;;;;;;;3.00;1.90;;;;;;;;;;5074857;28;20028;-54
2021/07/13 11:46:17;;;;;;;2.25;1.80;;;;;;;;;;5064810;28;20367;-54
2021/07/13 11:48:54;;;;;;;4.25;2.22;;;;;;;;;;5074179;28;20487;-52
2021/07/13 11:51:39;;;;;;;3.33;2.10;;;;;;;;;;5073565;28;20121;-56
2021/07/13 11:54:13;;;;;;;3.15;2.10;;;;;;;;;;5074415;28;20084;-51
2021/07/13 11:56:40;;;;;;;2.85;2.22;;;;;;;;;;5074487;28;20027;-50
2021/07/13 11:59:06;;;;;;;2.45;1.88;;;;;;;;;;5073077;28;20502;-52
2021/07/13 12:01:33;;;;;;;4.07;1.70;;;;;;;;;;5074553;28;20039;-53
2021/07/13 12:04:04;;;;;;;2.90;2.20;;;;;;;;;;5074392;28;20031;-51
2021/07/13 12:06:30;;;;;;;2.88;2.08;;;;;;;;;;5076847;28;20021;-50
2021/07/13 12:08:58;;;;;;;2.47;1.80;;;;;;;;;;5074049;28;20045;-51
2021/07/13 12:11:25;;;;;;;2.10;1.70;;;;;;;;;;5077519;28;20041;-55
2021/07/13 12:13:52;;;;;;;2.25;1.83;;;;;;;;;;5074571;28;20024;-50
2021/07/13 12:16:22;;;;;;;2.30;1.80;;;;;;;;;;5094343;28;20035;-52
2021/07/13 12:18:49;;;;;;;4.20;1.55;;;;;;;;;;5093608;28;20077;-53
2021/07/13 12:21:15;;;;;;;3.17;1.75;;;;;;;;;;5094396;28;20024;-51
2021/07/13 12:23:42;;;;;;;1.95;1.60;;;;;;;;;;5091885;28;20035;-53
2021/07/13 12:26:20;;;;;;;2.38;1.70;;;;;;;;;;5093889;28;20035;-52
2021/07/13 12:29:04;;;;;;;4.28;1.50;;;;;;;;;;5093551;28;20027;-56
2021/07/13 12:31:31;;;;;;;1.83;1.42;;;;;;;;;;5063671;28;20354;-51
2021/07/13 12:33:57;;;;;;;2.13;1.60;;;;;;;;;;5094232;28;20349;-56
2021/07/13 12:36:27;;;;;;;3.45;1.88;;;;;;;;;;5085122;28;20029;-51
2021/07/13 12:38:54;;;;;;;4.50;1.70;;;;;;;;;;5093257;28;20032;-54
2021/07/13 12:41:20;;;;;;;2.13;1.60;;;;;;;;;;5093421;28;20024;-53
2021/07/13 12:43:47;;;;;;;2.42;1.80;;;;;;;;;;5087809;28;20024;-52
2021/07/13 12:46:29;;;;;;;4.07;1.90;;;;;;;;;;5089980;28;20028;-55
2021/07/13 12:48:55;;;;;;;2.72;2.08;;;;;;;;;;5091706;28;20032;-52
2021/07/13 12:51:28;;;;;;;2.72;1.98;;;;;;;;;;5093182;28;20027;-50
2021/07/13 12:53:54;;;;;;;;;;;;;;;;;;5094296;28;20039;-55
2021/07/13 12:56:20;;;;;;;3.78;2.38;;;;;;;;;;5093239;28;20331;-54
2021/07/13 12:58:46;;;;;;;3.45;2.40;;;;;;;;;;5093212;28;20020;-54
2021/07/13 13:01:13;;;;;;;4.22;2.25;;;;;;;;;;5093325;28;20032;-53
2021/07/13 13:03:41;;;;;;;7.35;2.50;;;;;;;;;;5093704;28;20035;-54
2021/07/13 13:06:11;;;;;;;2.88;2.33;;;;;;;;;;5093820;28;20158;-55
2021/07/13 13:08:38;;;;;;;3.17;2.13;;;;;;;;;;5092962;28;20075;-50
2021/07/13 13:11:05;;;;;;;4.63;2.30;;;;;;;;;;5076301;28;20450;-54
2021/07/13 13:13:32;;;;;;;2.50;2.08;;;;;;;;;;5068971;28;20081;-52
2021/07/13 13:15:59;;;;;;;2.45;2.00;;;;;;;;;;5073080;28;20021;-52
2021/07/13 13:18:26;;;;;;;3.03;2.53;;;;;;;;;;5071868;28;20055;-56
2021/07/13 13:20:52;;;;;;;7.78;2.50;;;;;;;;;;5079477;28;20103;-55
2021/07/13 13:23:18;;;;;;;2.83;2.53;;;;;;;;;;5071578;28;20028;-50
2021/07/13 13:25:44;;;;;;;2.88;2.47;;;;;;;;;;5073255;28;20492;-52
2021/07/13 13:28:11;;;;;;;2.63;2.20;;;;;;;;;;5070476;28;20094;-50
2021/07/13 13:30:37;;;;;;;3.13;2.53;;;;;;;;;;5072822;28;20035;-54
2021/07/13 13:33:03;;;;;;;5.32;2.70;;;;;;;;;;5071152;28;20024;-50
2021/07/13 13:35:37;;;;;;;3.40;2.80;;;;;;;;;;5070085;28;20103;-53
2021/07/13 13:38:09;;;;;;;4.15;2.80;;;;;;;;;;5070164;28;20036;-53
2021/07/13 13:40:35;;;;;;;3.45;2.58;;;;;;;;;;5072680;28;20024;-56
2021/07/13 13:43:01;;;;;;;5.72;2.72;;;;;;;;;;5072527;28;20499;-54
2021/07/13 13:45:27;;;;;;;3.88;2.83;;;;;;;;;;5072391;28;20025;-56
2021/07/13 13:47:53;;;;;;;3.88;2.80;;;;;;;;;;5072174;28;20107;-53
2021/07/13 13:50:19;;;;;;;2.78;2.58;;;;;;;;;;5072232;28;20039;-50
2021/07/13 13:52:45;;;;;;;5.15;2.60;;;;;;;;;;5071883;28;20025;-52
2021/07/13 13:55:12;;;;;;;6.40;2.47;;;;;;;;;;5072515;28;20476;-52
2021/07/13 13:57:38;;;;;;;5.88;2.95;;;;;;;;;;5072130;28;20042;-51
2021/07/13 14:00:05;;;;;;;4.70;2.70;;;;;;;;;;5072235;28;20412;-51
2021/07/13 14:02:31;;;;;;;3.25;2.70;;;;;;;;;;5063723;28;20111;-54
2021/07/13 14:04:57;;;;;;;4.85;2.97;;;;;;;;;;5071465;28;20062;-52
2021/07/13 14:07:23;;;;;;;3.58;2.88;;;;;;;;;;5071998;28;20431;-53
2021/07/13 14:09:52;;;;;;;4.18;2.90;;;;;;;;;;5070711;28;20044;-52
2021/07/13 14:12:19;;;;;;;2.92;2.50;;;;;;;;;;5073681;28;20055;-53
2021/07/13 14:14:45;;;;;;;3.42;2.80;;;;;;;;;;5072195;28;20405;-51
2021/07/13 14:17:14;;;;;;;5.30;2.65;;;;;;;;;;5061108;28;20028;-53
2021/07/13 14:19:40;;;;;;;5.53;3.25;;;;;;;;;;5072100;28;20032;-53
2021/07/13 14:22:07;;;;;;;4.28;3.00;;;;;;;;;;5068111;28;20106;-53
2021/07/13 14:24:33;;;;;;;3.35;2.65;;;;;;;;;;5072354;28;20399;-50
2021/07/13 14:27:00;;;;;;;3.58;2.60;;;;;;;;;;5071851;28;20385;-53
2021/07/13 14:29:25;;;;;;;3.33;2.88;;;;;;;;;;5071513;28;20413;-51
2021/07/13 14:31:52;;;;;;;3.65;2.65;;;;;;;;;;5072044;28;20032;-53
2021/07/13 14:34:18;;;;;;;5.82;3.00;;;;;;;;;;5072025;28;20025;-52
2021/07/13 14:36:45;;;;;;;3.72;3.22;;;;;;;;;;5066638;28;20028;-52